Weather observations for the past three days for
VIGIE/ST LUCIA
Imperial (Metric)
Date Time (ast) Wind (mph) Vis. (mi.) Weather Sky Cond. Temperature (ºF) Relative Humidity Wind Chill (°F) Heat Index (°F) Pressure Precipitation (in)
Air Dwpt 6 hour altimeter (in) sea level (mb) 1 hr 3 hr 6 hr
Max. Min.
01 20:00 E 7 0.00 A Few Clouds FEW023 82.4 75.2 79% 89 0 0.0
01 19:00 E 7 0.00 A Few Clouds FEW023 82.4 75.2 79% 89 0 0.0
01 18:00 E 8 0.00 A Few Clouds FEW023 84.2 75.2 74% 92 0 0.0
01 17:00 E 10 0.00 A Few Clouds FEW024 86 75.2 70% 95 0 0.0
01 16:00 E 9 0.00 Partly Cloudy SCT023 87.8 75.2 66% 98 0 0.0
01 15:00 E 12 0.00 Partly Cloudy SCT023 86 75.2 70% 95 0 0.0
01 14:00 E 9 0.00 Mostly Cloudy BKN023 87.8 77 70% 100 0 0.0
01 12:00 E 14 0.00 Partly Cloudy SCT022 87.8 77 70% 100 0 0.0
01 11:00 E 10 0.00 Partly Cloudy SCT022 86 77 75% 97 0 0.0
01 10:00 E 9 0.00 Partly Cloudy SCT022 87.8 75.2 66% 98 0 0.0
01 09:00 E 8 0.00 Partly Cloudy SCT026 86 75.2 70% 95 0 0.0
31 20:00 E 6 0.00 A Few Clouds FEW024 82.4 77 84% 91 0 0.0
31 18:00 E 8 0.00 Partly Cloudy SCT026 84.2 77 79% 94 0 0.0
31 16:00 E 9 0.00 Partly Cloudy SCT026 86 77 75% 97 0 0.0
31 15:00 E 13 0.00 Partly Cloudy SCT026 87.8 77 70% 100 0 0.0
31 12:00 E 15 0.00 Partly Cloudy SCT026 87.8 77 70% 100 0 0.0
31 11:00 E 15 0.00 Partly Cloudy SCT026 87.8 77 70% 100 0 0.0
31 10:00 E 13 G 24 0.00 Partly Cloudy SCT025 86 77 75% 97 0 0.0
31 09:00 E 13 G 24 0.00 Partly Cloudy SCT025 86 77 75% 97 0 0.0
31 08:00 E 9 0.00 Partly Cloudy SCT024 84.2 77 79% 94 0 0.0
30 19:00 E 5 0.00 Mostly Cloudy FEW023 BKN038 80.6 75.2 84% 86 0 0.0
30 18:00 E 5 0.00 Mostly Cloudy FEW019CB BKN036 80.6 75.2 84% 86 0 0.0
30 17:00 E 6 0.00 Mostly Cloudy FEW017CB BKN036 80.6 75.2 84% 86 0 0.0
30 16:00 E 5 0.00 Mostly Cloudy FEW019CB BKN036 80.6 75.2 84% 86 0 0.0
30 15:00 S 5 0.00 Light Showers Rain Showers Rain FEW017CB SCT022 BKN036 82.4 77 84% 91 0 0.0
30 14:00 SE 18 G 32 0.00 Showers Rain FEW018CB BKN022 89.6 77 67% 103 0 0.0
30 13:00 SE 8 0.00 Partly Cloudy FEW018CB SCT022 87.8 75.2 66% 98 0 0.0
30 12:00 SE 9 0.00 Mostly Cloudy FEW018CB SCT022 BKN038 87.8 75.2 66% 98 0 0.0
30 11:00 SE 9 0.00 Mostly Cloudy FEW018CB SCT022 BKN038 86 77 75% 97 0 0.0
30 10:00 S 6 0.00 Light Showers Rain FEW018CB BKN022 82.4 78.8 89% 92 0 0.0
30 09:00 S 7 0.00 Light Showers Rain FEW018CB BKN022 82.4 77 84% 91 0 0.0
30 08:00 Calm 0.00 Partly Cloudy FEW022 SCT038 84.2 78.8 84% 96 0 0.0
Date Time (ast) Wind (mph) Vis. (mi.) Weather Sky Cond. Air Dwpt Max. Min. Relative Humidity Wind Chill (°F) Heat Index (°F) altimeter (in) sea level (mb) 1 hr 3 hr 6 hr
6 hour
Temperature (ºF) Pressure Precipitation (in)